Necton, United Kingdom
Current Conditions -  °F | °C
As of 12:50 AM on Saturday 29 Nov 2014 (Local Time) from EGYM Reporting Station
Haze Haze  
Wind Chill: 50°   Ceiling: 11000
Heat Index: 50°   Visibility: 4mi
Dew Point: 48°   Wind: 10mph
Humidity: 94%   Direction: 90°E
Pressure: 29.77"   Gusts: NA
Location:  52.65°N, 0.78°E
Report Text: EGYM 290050Z AUTO 09009KT 7000 HZ BKN110/// 10/09 Q1008
Loading
Personal Weather Stations






























Interactive Weather Map New forecast layout! Learn more

10-Day Weather Forecast

Advertisements
Track Severe Weather on mobile